sensor_id;sensor_type;location;lat;lon;timestamp;temperature;humidity
51837;DHT22;38941;53.254;6.600;2022-10-31T00:01:55;13.50;99.90
51837;DHT22;38941;53.254;6.600;2022-10-31T00:03:56;13.60;99.90
51837;DHT22;38941;53.254;6.600;2022-10-31T00:05:58;13.60;99.90
51837;DHT22;38941;53.254;6.600;2022-10-31T00:08:02;13.50;99.90
51837;DHT22;38941;53.254;6.600;2022-10-31T00:10:03;13.50;99.90
51837;DHT22;38941;53.254;6.600;2022-10-31T00:12:04;13.50;99.90
51837;DHT22;38941;53.254;6.600;2022-10-31T00:14:04;13.40;99.90
51837;DHT22;38941;53.254;6.600;2022-10-31T00:16:13;13.40;99.90
51837;DHT22;38941;53.254;6.600;2022-10-31T00:18:15;13.40;99.90
51837;DHT22;38941;53.254;6.600;2022-10-31T00:20:15;13.40;99.90
51837;DHT22;38941;53.254;6.600;2022-10-31T00:22:17;13.30;99.90
51837;DHT22;38941;53.254;6.600;2022-10-31T00:24:18;13.30;99.90
51837;DHT22;38941;53.254;6.600;2022-10-31T00:26:20;13.30;99.90
51837;DHT22;38941;53.254;6.600;2022-10-31T00:28:20;13.30;99.90
51837;DHT22;38941;53.254;6.600;2022-10-31T00:30:21;13.30;99.90
51837;DHT22;38941;53.254;6.600;2022-10-31T00:32:22;13.30;99.90
51837;DHT22;38941;53.254;6.600;2022-10-31T00:34:23;13.30;99.90
51837;DHT22;38941;53.254;6.600;2022-10-31T00:36:23;12.90;99.90
51837;DHT22;38941;53.254;6.600;2022-10-31T00:38:25;13.30;99.90
51837;DHT22;38941;53.254;6.600;2022-10-31T00:40:26;13.20;99.90
51837;DHT22;38941;53.254;6.600;2022-10-31T00:42:27;13.20;99.90
51837;DHT22;38941;53.254;6.600;2022-10-31T00:44:28;13.20;99.90
51837;DHT22;38941;53.254;6.600;2022-10-31T00:46:28;13.20;99.90
51837;DHT22;38941;53.254;6.600;2022-10-31T00:48:29;13.20;99.90
51837;DHT22;38941;53.254;6.600;2022-10-31T00:50:30;13.20;99.90
51837;DHT22;38941;53.254;6.600;2022-10-31T00:52:32;13.10;99.90
51837;DHT22;38941;53.254;6.600;2022-10-31T00:54:32;13.10;99.90
51837;DHT22;38941;53.254;6.600;2022-10-31T00:56:33;13.10;99.90
51837;DHT22;38941;53.254;6.600;2022-10-31T00:58:34;13.10;99.90
51837;DHT22;38941;53.254;6.600;2022-10-31T01:00:35;13.10;99.90
51837;DHT22;38941;53.254;6.600;2022-10-31T01:02:35;13.00;99.90
51837;DHT22;38941;53.254;6.600;2022-10-31T01:04:36;13.00;99.90
51837;DHT22;38941;53.254;6.600;2022-10-31T01:06:38;13.00;99.90
51837;DHT22;38941;53.254;6.600;2022-10-31T01:08:39;13.00;99.90
51837;DHT22;38941;53.254;6.600;2022-10-31T01:10:40;13.00;99.90
51837;DHT22;38941;53.254;6.600;2022-10-31T01:12:43;13.00;99.90
51837;DHT22;38941;53.254;6.600;2022-10-31T01:14:44;13.00;99.90
51837;DHT22;38941;53.254;6.600;2022-10-31T01:16:45;12.30;99.90
51837;DHT22;38941;53.254;6.600;2022-10-31T01:18:46;13.00;99.90
51837;DHT22;38941;53.254;6.600;2022-10-31T01:21:00;12.90;99.90
51837;DHT22;38941;53.254;6.600;2022-10-31T01:23:02;12.90;99.90
51837;DHT22;38941;53.254;6.600;2022-10-31T01:25:03;12.90;99.90
51837;DHT22;38941;53.254;6.600;2022-10-31T01:27:05;12.90;99.90
51837;DHT22;38941;53.254;6.600;2022-10-31T01:29:07;12.90;99.90
51837;DHT22;38941;53.254;6.600;2022-10-31T01:31:10;12.90;99.90
51837;DHT22;38941;53.254;6.600;2022-10-31T01:33:11;12.80;99.90
51837;DHT22;38941;53.254;6.600;2022-10-31T01:35:12;12.80;99.90
51837;DHT22;38941;53.254;6.600;2022-10-31T01:37:12;12.80;99.90
51837;DHT22;38941;53.254;6.600;2022-10-31T01:39:15;12.80;99.90
51837;DHT22;38941;53.254;6.600;2022-10-31T01:41:19;12.80;99.90
51837;DHT22;38941;53.254;6.600;2022-10-31T01:43:21;12.80;99.90
51837;DHT22;38941;53.254;6.600;2022-10-31T01:45:23;12.80;99.90
51837;DHT22;38941;53.254;6.600;2022-10-31T01:47:33;12.80;99.90
51837;DHT22;38941;53.254;6.600;2022-10-31T01:49:39;12.80;99.90
51837;DHT22;38941;53.254;6.600;2022-10-31T01:51:46;12.80;99.90
51837;DHT22;38941;53.254;6.600;2022-10-31T01:53:50;12.80;99.90
51837;DHT22;38941;53.254;6.600;2022-10-31T01:55:54;12.70;99.90
51837;DHT22;38941;53.254;6.600;2022-10-31T01:57:59;12.80;99.90
51837;DHT22;38941;53.254;6.600;2022-10-31T02:00:06;12.70;99.90
51837;DHT22;38941;53.254;6.600;2022-10-31T02:02:07;12.70;99.90
51837;DHT22;38941;53.254;6.600;2022-10-31T02:04:09;12.70;99.90
51837;DHT22;38941;53.254;6.600;2022-10-31T02:06:36;12.30;99.90
51837;DHT22;38941;53.254;6.600;2022-10-31T02:08:35;12.70;99.90
51837;DHT22;38941;53.254;6.600;2022-10-31T02:10:37;12.60;99.90
51837;DHT22;38941;53.254;6.600;2022-10-31T02:12:39;12.60;99.90
51837;DHT22;38941;53.254;6.600;2022-10-31T02:14:41;12.60;99.90
51837;DHT22;38941;53.254;6.600;2022-10-31T02:16:42;12.60;99.90
51837;DHT22;38941;53.254;6.600;2022-10-31T02:18:43;12.60;99.90
51837;DHT22;38941;53.254;6.600;2022-10-31T02:21:44;12.50;99.90
51837;DHT22;38941;53.254;6.600;2022-10-31T02:33:41;12.50;99.90
51837;DHT22;38941;53.254;6.600;2022-10-31T02:41:36;12.40;99.90
51837;DHT22;38941;53.254;6.600;2022-10-31T02:43:29;12.40;99.90
51837;DHT22;38941;53.254;6.600;2022-10-31T02:45:42;12.40;99.90
51837;DHT22;38941;53.254;6.600;2022-10-31T02:47:45;12.40;99.90
51837;DHT22;38941;53.254;6.600;2022-10-31T02:50:06;12.40;99.90
51837;DHT22;38941;53.254;6.600;2022-10-31T02:52:18;12.40;99.90
51837;DHT22;38941;53.254;6.600;2022-10-31T02:54:23;12.40;99.90
51837;DHT22;38941;53.254;6.600;2022-10-31T02:56:25;12.30;99.90
51837;DHT22;38941;53.254;6.600;2022-10-31T02:58:30;12.30;99.90
51837;DHT22;38941;53.254;6.600;2022-10-31T03:00:39;12.30;99.90
51837;DHT22;38941;53.254;6.600;2022-10-31T03:05:14;12.30;99.90
51837;DHT22;38941;53.254;6.600;2022-10-31T03:10:03;12.30;99.90
51837;DHT22;38941;53.254;6.600;2022-10-31T03:12:10;12.20;99.90
51837;DHT22;38941;53.254;6.600;2022-10-31T03:14:26;12.20;99.90
51837;DHT22;38941;53.254;6.600;2022-10-31T03:16:50;12.20;99.90
51837;DHT22;38941;53.254;6.600;2022-10-31T03:18:56;12.20;99.90
51837;DHT22;38941;53.254;6.600;2022-10-31T03:21:04;12.20;99.90
51837;DHT22;38941;53.254;6.600;2022-10-31T03:23:10;12.20;99.90
51837;DHT22;38941;53.254;6.600;2022-10-31T03:25:13;12.10;99.90
51837;DHT22;38941;53.254;6.600;2022-10-31T03:27:16;12.10;99.90
51837;DHT22;38941;53.254;6.600;2022-10-31T03:29:23;12.10;99.90
51837;DHT22;38941;53.254;6.600;2022-10-31T03:31:29;12.10;99.90
51837;DHT22;38941;53.254;6.600;2022-10-31T03:33:34;12.00;99.90
51837;DHT22;38941;53.254;6.600;2022-10-31T03:35:36;12.00;99.90
51837;DHT22;38941;53.254;6.600;2022-10-31T03:37:40;12.00;99.90
51837;DHT22;38941;53.254;6.600;2022-10-31T03:39:44;12.00;99.90
51837;DHT22;38941;53.254;6.600;2022-10-31T03:42:04;12.00;99.90
51837;DHT22;38941;53.254;6.600;2022-10-31T03:44:08;11.90;99.90
51837;DHT22;38941;53.254;6.600;2022-10-31T03:46:11;11.90;99.90
51837;DHT22;38941;53.254;6.600;2022-10-31T03:48:13;11.90;99.90
51837;DHT22;38941;53.254;6.600;2022-10-31T03:50:15;11.90;99.90
51837;DHT22;38941;53.254;6.600;2022-10-31T03:55:16;11.90;99.90
51837;DHT22;38941;53.254;6.600;2022-10-31T03:57:29;11.90;99.90
51837;DHT22;38941;53.254;6.600;2022-10-31T03:59:36;11.90;99.90
51837;DHT22;38941;53.254;6.600;2022-10-31T04:01:41;11.90;99.90
51837;DHT22;38941;53.254;6.600;2022-10-31T04:03:44;11.90;99.90
51837;DHT22;38941;53.254;6.600;2022-10-31T04:05:46;11.90;99.90
51837;DHT22;38941;53.254;6.600;2022-10-31T04:07:53;11.90;99.90
51837;DHT22;38941;53.254;6.600;2022-10-31T04:09:56;11.90;99.90
51837;DHT22;38941;53.254;6.600;2022-10-31T04:12:00;11.90;99.90
51837;DHT22;38941;53.254;6.600;2022-10-31T04:14:04;11.90;99.90
51837;DHT22;38941;53.254;6.600;2022-10-31T04:16:06;11.80;99.90
51837;DHT22;38941;53.254;6.600;2022-10-31T04:18:08;11.80;99.90
51837;DHT22;38941;53.254;6.600;2022-10-31T04:20:09;11.80;99.90
51837;DHT22;38941;53.254;6.600;2022-10-31T04:22:10;11.80;99.90
51837;DHT22;38941;53.254;6.600;2022-10-31T04:24:11;11.80;99.90
51837;DHT22;38941;53.254;6.600;2022-10-31T04:26:13;11.80;99.90
51837;DHT22;38941;53.254;6.600;2022-10-31T04:28:14;11.80;99.90
51837;DHT22;38941;53.254;6.600;2022-10-31T04:30:14;11.80;99.90
51837;DHT22;38941;53.254;6.600;2022-10-31T04:32:15;11.80;99.90
51837;DHT22;38941;53.254;6.600;2022-10-31T04:34:17;11.70;99.90
51837;DHT22;38941;53.254;6.600;2022-10-31T04:36:17;11.70;99.90
51837;DHT22;38941;53.254;6.600;2022-10-31T04:38:18;11.70;99.90
51837;DHT22;38941;53.254;6.600;2022-10-31T04:40:21;11.70;99.90
51837;DHT22;38941;53.254;6.600;2022-10-31T04:42:21;11.70;99.90
51837;DHT22;38941;53.254;6.600;2022-10-31T04:44:22;11.60;99.90
51837;DHT22;38941;53.254;6.600;2022-10-31T04:46:25;11.60;99.90
51837;DHT22;38941;53.254;6.600;2022-10-31T04:48:25;11.60;99.90
51837;DHT22;38941;53.254;6.600;2022-10-31T04:50:26;11.60;99.90
51837;DHT22;38941;53.254;6.600;2022-10-31T04:52:27;11.60;99.90
51837;DHT22;38941;53.254;6.600;2022-10-31T04:54:28;11.60;99.90
51837;DHT22;38941;53.254;6.600;2022-10-31T04:56:31;11.60;99.90
51837;DHT22;38941;53.254;6.600;2022-10-31T04:58:31;11.50;99.90
51837;DHT22;38941;53.254;6.600;2022-10-31T05:00:33;11.40;99.90
51837;DHT22;38941;53.254;6.600;2022-10-31T05:02:45;11.50;99.90
51837;DHT22;38941;53.254;6.600;2022-10-31T05:04:46;11.50;99.90
51837;DHT22;38941;53.254;6.600;2022-10-31T05:06:47;11.50;99.90
51837;DHT22;38941;53.254;6.600;2022-10-31T05:08:48;11.50;99.90
51837;DHT22;38941;53.254;6.600;2022-10-31T05:10:50;11.50;99.90
51837;DHT22;38941;53.254;6.600;2022-10-31T05:12:53;11.40;99.90
51837;DHT22;38941;53.254;6.600;2022-10-31T05:14:55;11.40;99.90
51837;DHT22;38941;53.254;6.600;2022-10-31T05:16:56;11.40;99.90
51837;DHT22;38941;53.254;6.600;2022-10-31T05:18:57;11.40;99.90
51837;DHT22;38941;53.254;6.600;2022-10-31T05:20:58;11.40;99.90
51837;DHT22;38941;53.254;6.600;2022-10-31T05:22:59;11.30;99.90
51837;DHT22;38941;53.254;6.600;2022-10-31T05:25:01;11.30;99.90
51837;DHT22;38941;53.254;6.600;2022-10-31T05:27:03;11.30;99.90
51837;DHT22;38941;53.254;6.600;2022-10-31T05:29:05;11.30;99.90
51837;DHT22;38941;53.254;6.600;2022-10-31T05:31:06;11.20;99.90
51837;DHT22;38941;53.254;6.600;2022-10-31T05:33:07;11.30;99.90
51837;DHT22;38941;53.254;6.600;2022-10-31T05:35:08;11.20;99.90
51837;DHT22;38941;53.254;6.600;2022-10-31T05:37:09;11.20;99.90
51837;DHT22;38941;53.254;6.600;2022-10-31T05:39:11;11.20;99.90
51837;DHT22;38941;53.254;6.600;2022-10-31T05:41:12;11.20;99.90
51837;DHT22;38941;53.254;6.600;2022-10-31T05:43:13;11.20;99.90
51837;DHT22;38941;53.254;6.600;2022-10-31T05:45:16;11.10;99.90
51837;DHT22;38941;53.254;6.600;2022-10-31T05:47:19;11.10;99.90
51837;DHT22;38941;53.254;6.600;2022-10-31T05:49:28;11.10;99.90
51837;DHT22;38941;53.254;6.600;2022-10-31T05:51:31;11.10;99.90
51837;DHT22;38941;53.254;6.600;2022-10-31T05:53:32;11.10;99.90
51837;DHT22;38941;53.254;6.600;2022-10-31T05:55:34;11.10;99.90
51837;DHT22;38941;53.254;6.600;2022-10-31T05:57:35;11.00;99.90
51837;DHT22;38941;53.254;6.600;2022-10-31T05:59:40;11.00;99.90
51837;DHT22;38941;53.254;6.600;2022-10-31T06:01:51;11.00;99.90
51837;DHT22;38941;53.254;6.600;2022-10-31T06:04:18;11.00;99.90
51837;DHT22;38941;53.254;6.600;2022-10-31T06:06:19;10.90;99.90
51837;DHT22;38941;53.254;6.600;2022-10-31T06:08:20;10.90;99.90
51837;DHT22;38941;53.254;6.600;2022-10-31T06:10:21;10.90;99.90
51837;DHT22;38941;53.254;6.600;2022-10-31T06:12:24;10.90;99.90
51837;DHT22;38941;53.254;6.600;2022-10-31T06:14:32;10.90;99.90
51837;DHT22;38941;53.254;6.600;2022-10-31T06:16:36;10.90;99.90
51837;DHT22;38941;53.254;6.600;2022-10-31T06:18:37;10.90;99.90
51837;DHT22;38941;53.254;6.600;2022-10-31T06:20:38;10.80;99.90
51837;DHT22;38941;53.254;6.600;2022-10-31T06:22:50;10.90;99.90
51837;DHT22;38941;53.254;6.600;2022-10-31T06:25:10;10.80;99.90
51837;DHT22;38941;53.254;6.600;2022-10-31T06:27:15;10.80;99.90
51837;DHT22;38941;53.254;6.600;2022-10-31T06:29:21;10.80;99.90
51837;DHT22;38941;53.254;6.600;2022-10-31T06:31:22;10.80;99.90
51837;DHT22;38941;53.254;6.600;2022-10-31T06:33:23;10.80;99.90
51837;DHT22;38941;53.254;6.600;2022-10-31T06:35:34;10.90;99.90
51837;DHT22;38941;53.254;6.600;2022-10-31T06:37:35;10.80;99.90
51837;DHT22;38941;53.254;6.600;2022-10-31T06:39:42;10.80;99.90
51837;DHT22;38941;53.254;6.600;2022-10-31T06:41:47;10.80;99.90
51837;DHT22;38941;53.254;6.600;2022-10-31T06:43:49;10.80;99.90
51837;DHT22;38941;53.254;6.600;2022-10-31T06:45:50;10.80;99.90
51837;DHT22;38941;53.254;6.600;2022-10-31T06:47:54;10.80;99.90
51837;DHT22;38941;53.254;6.600;2022-10-31T06:49:55;10.80;99.90
51837;DHT22;38941;53.254;6.600;2022-10-31T06:51:56;10.80;99.90
51837;DHT22;38941;53.254;6.600;2022-10-31T06:53:56;10.80;99.90
51837;DHT22;38941;53.254;6.600;2022-10-31T06:55:58;10.80;99.90
51837;DHT22;38941;53.254;6.600;2022-10-31T06:58:00;10.80;99.90
51837;DHT22;38941;53.254;6.600;2022-10-31T07:00:03;10.80;99.90
51837;DHT22;38941;53.254;6.600;2022-10-31T07:02:04;10.90;99.90
51837;DHT22;38941;53.254;6.600;2022-10-31T07:04:05;10.80;99.90
51837;DHT22;38941;53.254;6.600;2022-10-31T07:06:12;10.90;99.90
51837;DHT22;38941;53.254;6.600;2022-10-31T07:08:14;10.90;99.90
51837;DHT22;38941;53.254;6.600;2022-10-31T07:10:15;10.90;99.90
51837;DHT22;38941;53.254;6.600;2022-10-31T07:12:16;10.90;99.90
51837;DHT22;38941;53.254;6.600;2022-10-31T07:14:18;10.90;99.90
51837;DHT22;38941;53.254;6.600;2022-10-31T07:16:19;10.90;99.90
51837;DHT22;38941;53.254;6.600;2022-10-31T07:18:20;10.90;99.90
51837;DHT22;38941;53.254;6.600;2022-10-31T07:20:23;10.90;99.90
51837;DHT22;38941;53.254;6.600;2022-10-31T07:22:24;10.80;99.90
51837;DHT22;38941;53.254;6.600;2022-10-31T07:24:24;10.80;99.90
51837;DHT22;38941;53.254;6.600;2022-10-31T07:26:30;10.80;99.90
51837;DHT22;38941;53.254;6.600;2022-10-31T07:28:32;10.80;99.90
51837;DHT22;38941;53.254;6.600;2022-10-31T07:30:34;10.80;99.90
51837;DHT22;38941;53.254;6.600;2022-10-31T07:32:43;10.80;99.90
51837;DHT22;38941;53.254;6.600;2022-10-31T07:34:45;10.80;99.90
51837;DHT22;38941;53.254;6.600;2022-10-31T07:36:45;10.80;99.90
51837;DHT22;38941;53.254;6.600;2022-10-31T07:38:47;10.80;99.90
51837;DHT22;38941;53.254;6.600;2022-10-31T07:40:51;10.80;99.90
51837;DHT22;38941;53.254;6.600;2022-10-31T07:42:57;10.80;99.90
51837;DHT22;38941;53.254;6.600;2022-10-31T07:44:59;10.90;99.90
51837;DHT22;38941;53.254;6.600;2022-10-31T07:47:01;10.90;99.90
51837;DHT22;38941;53.254;6.600;2022-10-31T07:49:02;10.90;99.90
51837;DHT22;38941;53.254;6.600;2022-10-31T07:51:08;11.00;99.90
51837;DHT22;38941;53.254;6.600;2022-10-31T07:53:12;11.00;99.90
51837;DHT22;38941;53.254;6.600;2022-10-31T07:55:14;11.10;99.90
51837;DHT22;38941;53.254;6.600;2022-10-31T07:57:15;11.10;99.90
51837;DHT22;38941;53.254;6.600;2022-10-31T07:59:16;11.20;99.90
51837;DHT22;38941;53.254;6.600;2022-10-31T08:01:18;11.20;99.90
51837;DHT22;38941;53.254;6.600;2022-10-31T08:03:21;11.30;99.90
51837;DHT22;38941;53.254;6.600;2022-10-31T08:05:24;11.40;99.90
51837;DHT22;38941;53.254;6.600;2022-10-31T08:07:25;11.40;99.90
51837;DHT22;38941;53.254;6.600;2022-10-31T08:09:27;11.50;99.90
51837;DHT22;38941;53.254;6.600;2022-10-31T08:11:27;11.50;99.90
51837;DHT22;38941;53.254;6.600;2022-10-31T08:13:30;11.60;99.90
51837;DHT22;38941;53.254;6.600;2022-10-31T08:15:31;11.60;99.90
51837;DHT22;38941;53.254;6.600;2022-10-31T08:17:37;11.70;99.90
51837;DHT22;38941;53.254;6.600;2022-10-31T08:19:38;11.80;99.90
51837;DHT22;38941;53.254;6.600;2022-10-31T08:21:39;12.00;99.90
51837;DHT22;38941;53.254;6.600;2022-10-31T08:23:40;12.30;99.90
51837;DHT22;38941;53.254;6.600;2022-10-31T08:25:41;12.90;99.90
51837;DHT22;38941;53.254;6.600;2022-10-31T08:27:42;13.80;99.90
51837;DHT22;38941;53.254;6.600;2022-10-31T08:29:43;14.50;99.90
51837;DHT22;38941;53.254;6.600;2022-10-31T08:31:44;15.00;99.90
51837;DHT22;38941;53.254;6.600;2022-10-31T08:33:44;15.10;99.90
51837;DHT22;38941;53.254;6.600;2022-10-31T08:35:45;15.20;99.90
51837;DHT22;38941;53.254;6.600;2022-10-31T08:37:55;15.50;99.90
51837;DHT22;38941;53.254;6.600;2022-10-31T08:39:56;15.90;99.90
51837;DHT22;38941;53.254;6.600;2022-10-31T08:41:57;16.10;99.90
51837;DHT22;38941;53.254;6.600;2022-10-31T08:43:59;16.10;99.90
51837;DHT22;38941;53.254;6.600;2022-10-31T08:46:02;16.20;99.90
51837;DHT22;38941;53.254;6.600;2022-10-31T08:48:06;16.60;99.90
51837;DHT22;38941;53.254;6.600;2022-10-31T08:50:07;17.00;99.90
51837;DHT22;38941;53.254;6.600;2022-10-31T08:52:07;17.40;99.90
51837;DHT22;38941;53.254;6.600;2022-10-31T08:54:08;17.50;99.90
51837;DHT22;38941;53.254;6.600;2022-10-31T08:56:09;17.30;99.90
51837;DHT22;38941;53.254;6.600;2022-10-31T08:58:16;17.10;99.90
51837;DHT22;38941;53.254;6.600;2022-10-31T09:00:16;17.00;99.90
51837;DHT22;38941;53.254;6.600;2022-10-31T09:02:17;16.90;99.90
51837;DHT22;38941;53.254;6.600;2022-10-31T09:04:18;17.00;99.90
51837;DHT22;38941;53.254;6.600;2022-10-31T09:06:20;17.10;99.90
51837;DHT22;38941;53.254;6.600;2022-10-31T09:08:23;17.40;99.90
51837;DHT22;38941;53.254;6.600;2022-10-31T09:10:28;17.90;99.90
51837;DHT22;38941;53.254;6.600;2022-10-31T09:12:29;18.40;99.90
51837;DHT22;38941;53.254;6.600;2022-10-31T09:14:30;18.90;99.90
51837;DHT22;38941;53.254;6.600;2022-10-31T09:16:31;18.80;99.90
51837;DHT22;38941;53.254;6.600;2022-10-31T09:18:32;18.40;99.90
51837;DHT22;38941;53.254;6.600;2022-10-31T09:20:35;18.30;99.90
51837;DHT22;38941;53.254;6.600;2022-10-31T09:22:37;18.20;99.90
51837;DHT22;38941;53.254;6.600;2022-10-31T09:24:39;18.20;99.90
51837;DHT22;38941;53.254;6.600;2022-10-31T09:26:39;18.10;99.90
51837;DHT22;38941;53.254;6.600;2022-10-31T09:28:40;17.90;99.90
51837;DHT22;38941;53.254;6.600;2022-10-31T09:30:42;17.90;99.90
51837;DHT22;38941;53.254;6.600;2022-10-31T09:32:43;17.80;99.90
51837;DHT22;38941;53.254;6.600;2022-10-31T09:34:43;17.80;99.90
51837;DHT22;38941;53.254;6.600;2022-10-31T09:36:45;17.60;99.90
51837;DHT22;38941;53.254;6.600;2022-10-31T09:38:46;17.50;99.90
51837;DHT22;38941;53.254;6.600;2022-10-31T09:40:57;17.50;99.90
51837;DHT22;38941;53.254;6.600;2022-10-31T09:45:21;17.90;99.90
51837;DHT22;38941;53.254;6.600;2022-10-31T09:50:00;17.70;99.90
51837;DHT22;38941;53.254;6.600;2022-10-31T09:52:19;17.60;99.90
51837;DHT22;38941;53.254;6.600;2022-10-31T09:54:27;17.70;99.90
51837;DHT22;38941;53.254;6.600;2022-10-31T09:56:31;17.60;99.90
51837;DHT22;38941;53.254;6.600;2022-10-31T09:58:37;17.70;99.90
51837;DHT22;38941;53.254;6.600;2022-10-31T10:00:43;17.80;99.90
51837;DHT22;38941;53.254;6.600;2022-10-31T10:02:56;17.80;99.90
51837;DHT22;38941;53.254;6.600;2022-10-31T10:05:00;17.70;99.90
51837;DHT22;38941;53.254;6.600;2022-10-31T10:07:14;17.50;99.90
51837;DHT22;38941;53.254;6.600;2022-10-31T10:09:22;17.60;99.90
51837;DHT22;38941;53.254;6.600;2022-10-31T10:13:50;17.60;99.90
51837;DHT22;38941;53.254;6.600;2022-10-31T10:25:19;17.70;99.90
51837;DHT22;38941;53.254;6.600;2022-10-31T10:27:30;17.80;99.90
51837;DHT22;38941;53.254;6.600;2022-10-31T10:29:44;18.10;99.90
51837;DHT22;38941;53.254;6.600;2022-10-31T10:31:48;18.30;99.90
51837;DHT22;38941;53.254;6.600;2022-10-31T10:35:59;18.70;99.90
51837;DHT22;38941;53.254;6.600;2022-10-31T10:38:31;18.70;99.90
51837;DHT22;38941;53.254;6.600;2022-10-31T10:40:37;18.80;99.90
51837;DHT22;38941;53.254;6.600;2022-10-31T10:42:39;18.90;99.90
51837;DHT22;38941;53.254;6.600;2022-10-31T10:45:00;19.00;99.90
51837;DHT22;38941;53.254;6.600;2022-10-31T10:47:20;19.00;99.90
51837;DHT22;38941;53.254;6.600;2022-10-31T10:49:48;19.00;99.90
51837;DHT22;38941;53.254;6.600;2022-10-31T10:54:42;19.20;99.90
51837;DHT22;38941;53.254;6.600;2022-10-31T10:56:58;19.30;99.90
51837;DHT22;38941;53.254;6.600;2022-10-31T10:59:01;19.40;99.90
51837;DHT22;38941;53.254;6.600;2022-10-31T11:01:11;19.30;99.90
51837;DHT22;38941;53.254;6.600;2022-10-31T11:03:13;18.90;99.90
51837;DHT22;38941;53.254;6.600;2022-10-31T11:07:39;19.10;99.90
51837;DHT22;38941;53.254;6.600;2022-10-31T11:09:44;19.20;99.90
51837;DHT22;38941;53.254;6.600;2022-10-31T11:11:44;19.20;99.90
51837;DHT22;38941;53.254;6.600;2022-10-31T11:13:48;19.10;99.90
51837;DHT22;38941;53.254;6.600;2022-10-31T11:18:22;19.20;99.90
51837;DHT22;38941;53.254;6.600;2022-10-31T11:20:33;19.40;99.90
51837;DHT22;38941;53.254;6.600;2022-10-31T11:22:36;19.30;99.90
51837;DHT22;38941;53.254;6.600;2022-10-31T11:24:41;19.50;99.90
51837;DHT22;38941;53.254;6.600;2022-10-31T11:26:45;19.40;99.90
51837;DHT22;38941;53.254;6.600;2022-10-31T11:28:57;19.40;99.90
51837;DHT22;38941;53.254;6.600;2022-10-31T11:30:59;19.30;99.90
51837;DHT22;38941;53.254;6.600;2022-10-31T11:33:00;19.20;99.90
51837;DHT22;38941;53.254;6.600;2022-10-31T11:35:03;19.10;99.90
51837;DHT22;38941;53.254;6.600;2022-10-31T11:37:26;18.90;99.90
51837;DHT22;38941;53.254;6.600;2022-10-31T11:39:28;18.60;99.90
51837;DHT22;38941;53.254;6.600;2022-10-31T11:41:34;18.40;99.90
51837;DHT22;38941;53.254;6.600;2022-10-31T11:43:37;18.30;99.90
51837;DHT22;38941;53.254;6.600;2022-10-31T11:45:39;18.20;99.90
51837;DHT22;38941;53.254;6.600;2022-10-31T11:47:44;18.10;99.90
51837;DHT22;38941;53.254;6.600;2022-10-31T11:49:47;18.10;99.90
51837;DHT22;38941;53.254;6.600;2022-10-31T11:51:54;18.10;99.90
51837;DHT22;38941;53.254;6.600;2022-10-31T11:53:57;18.10;99.90
51837;DHT22;38941;53.254;6.600;2022-10-31T11:56:06;18.00;99.90
51837;DHT22;38941;53.254;6.600;2022-10-31T11:58:24;18.00;99.90
51837;DHT22;38941;53.254;6.600;2022-10-31T12:00:28;17.90;99.90
51837;DHT22;38941;53.254;6.600;2022-10-31T12:02:30;17.80;99.90
51837;DHT22;38941;53.254;6.600;2022-10-31T12:04:38;17.80;99.90
51837;DHT22;38941;53.254;6.600;2022-10-31T12:06:42;17.90;99.90
51837;DHT22;38941;53.254;6.600;2022-10-31T12:08:43;17.80;99.90
51837;DHT22;38941;53.254;6.600;2022-10-31T12:17:39;18.30;99.90
51837;DHT22;38941;53.254;6.600;2022-10-31T12:45:07;18.10;99.90
51837;DHT22;38941;53.254;6.600;2022-10-31T12:47:22;18.10;99.90
51837;DHT22;38941;53.254;6.600;2022-10-31T12:51:53;18.00;99.90
51837;DHT22;38941;53.254;6.600;2022-10-31T13:01:39;18.20;99.90
51837;DHT22;38941;53.254;6.600;2022-10-31T13:05:57;18.50;99.90
51837;DHT22;38941;53.254;6.600;2022-10-31T13:08:09;18.70;99.90
51837;DHT22;38941;53.254;6.600;2022-10-31T13:10:21;18.80;99.90
51837;DHT22;38941;53.254;6.600;2022-10-31T13:12:24;18.90;99.90
51837;DHT22;38941;53.254;6.600;2022-10-31T13:16:44;19.10;99.90
51837;DHT22;38941;53.254;6.600;2022-10-31T13:18:58;19.10;99.90
51837;DHT22;38941;53.254;6.600;2022-10-31T13:21:05;19.10;99.90
51837;DHT22;38941;53.254;6.600;2022-10-31T13:25:27;19.10;99.90
51837;DHT22;38941;53.254;6.600;2022-10-31T13:27:38;19.00;99.90
51837;DHT22;38941;53.254;6.600;2022-10-31T13:30:05;18.90;99.90
51837;DHT22;38941;53.254;6.600;2022-10-31T13:32:06;18.80;99.90
51837;DHT22;38941;53.254;6.600;2022-10-31T13:36:39;18.60;99.90
51837;DHT22;38941;53.254;6.600;2022-10-31T13:38:50;18.60;99.90
51837;DHT22;38941;53.254;6.600;2022-10-31T13:41:04;18.60;99.90
51837;DHT22;38941;53.254;6.600;2022-10-31T13:45:32;18.60;99.90
51837;DHT22;38941;53.254;6.600;2022-10-31T13:47:32;18.50;99.90
51837;DHT22;38941;53.254;6.600;2022-10-31T13:51:34;18.60;99.90
51837;DHT22;38941;53.254;6.600;2022-10-31T13:54:00;18.60;99.90
51837;DHT22;38941;53.254;6.600;2022-10-31T13:56:16;18.70;99.90
51837;DHT22;38941;53.254;6.600;2022-10-31T13:58:28;18.70;99.90
51837;DHT22;38941;53.254;6.600;2022-10-31T14:00:31;18.60;99.90
51837;DHT22;38941;53.254;6.600;2022-10-31T14:02:36;18.60;99.90
51837;DHT22;38941;53.254;6.600;2022-10-31T14:04:48;18.70;99.90
51837;DHT22;38941;53.254;6.600;2022-10-31T14:07:08;19.00;99.90
51837;DHT22;38941;53.254;6.600;2022-10-31T14:09:20;19.20;99.70
51837;DHT22;38941;53.254;6.600;2022-10-31T14:11:25;19.10;99.30
51837;DHT22;38941;53.254;6.600;2022-10-31T14:13:44;19.00;99.50
51837;DHT22;38941;53.254;6.600;2022-10-31T14:17:56;18.70;99.70
51837;DHT22;38941;53.254;6.600;2022-10-31T14:22:21;18.60;99.90
51837;DHT22;38941;53.254;6.600;2022-10-31T14:28:34;18.30;99.90
51837;DHT22;38941;53.254;6.600;2022-10-31T14:30:36;18.20;99.90
51837;DHT22;38941;53.254;6.600;2022-10-31T14:32:39;18.10;99.90
51837;DHT22;38941;53.254;6.600;2022-10-31T14:34:42;18.10;99.90
51837;DHT22;38941;53.254;6.600;2022-10-31T14:39:49;18.00;99.90
51837;DHT22;38941;53.254;6.600;2022-10-31T14:42:20;17.90;99.90
51837;DHT22;38941;53.254;6.600;2022-10-31T14:45:02;17.90;99.90
51837;DHT22;38941;53.254;6.600;2022-10-31T14:52:14;17.90;99.90
51837;DHT22;38941;53.254;6.600;2022-10-31T14:54:39;17.90;99.90
51837;DHT22;38941;53.254;6.600;2022-10-31T14:57:07;17.80;99.90
51837;DHT22;38941;53.254;6.600;2022-10-31T14:59:16;17.80;99.90
51837;DHT22;38941;53.254;6.600;2022-10-31T15:01:31;17.70;99.90
51837;DHT22;38941;53.254;6.600;2022-10-31T15:03:34;17.70;99.90
51837;DHT22;38941;53.254;6.600;2022-10-31T15:05:48;17.70;99.90
51837;DHT22;38941;53.254;6.600;2022-10-31T15:07:58;17.70;99.90
51837;DHT22;38941;53.254;6.600;2022-10-31T15:10:04;17.60;99.90
51837;DHT22;38941;53.254;6.600;2022-10-31T15:12:30;17.50;99.90